Time;durP1;ratioP1;P1;durP2;ratioP2;P2;SDS_P1;SDS_P2;PMS_P1;PMS_P2;Temp;Humidity;BMP_temperature;BMP_pressure;BME280_temperature;BME280_humidity;BME280_pressure;Samples;Min_cycle;Max_cycle;Signal;HPM_P1;HPM_P2
2022/10/13 00:00:09;;;;;;;8.57;2.05;;;;;;;7.77;100.00;100924.31;4981165;28;20144;-90
2022/10/13 00:02:36;;;;;;;8.07;1.88;;;;;;;7.78;100.00;100917.34;4975231;28;20051;-91
2022/10/13 00:05:02;;;;;;;5.72;1.80;;;;;;;7.85;100.00;100944.16;4970296;28;20054;-91
2022/10/13 00:07:29;;;;;;;7.68;1.65;;;;;;;7.68;100.00;100924.50;4974497;28;20046;-91
2022/10/13 00:09:56;;;;;;;7.10;1.77;;;;;;;7.65;100.00;100908.97;4991497;28;20057;-91
2022/10/13 00:12:22;;;;;;;5.43;1.85;;;;;;;7.74;100.00;100932.22;4991188;28;20113;-91
2022/10/13 00:14:49;;;;;;;6.28;1.55;;;;;;;7.86;100.00;100951.94;4994986;28;20054;-91
2022/10/13 00:17:16;;;;;;;8.05;2.17;;;;;;;7.62;100.00;100905.56;4986015;28;20050;-91
2022/10/13 00:19:42;;;;;;;8.80;1.88;;;;;;;7.58;100.00;100907.41;4970189;28;20129;-91
2022/10/13 00:22:09;;;;;;;9.05;2.03;;;;;;;7.81;100.00;100935.53;4977565;28;20046;-91
2022/10/13 00:24:36;;;;;;;6.63;1.70;;;;;;;7.80;100.00;100919.03;4978064;28;20042;-91
2022/10/13 00:27:02;;;;;;;3.65;1.35;;;;;;;7.87;100.00;100935.38;4977831;28;20120;-90
2022/10/13 00:29:29;;;;;;;6.65;3.15;;;;;;;7.82;100.00;100921.59;4974946;28;20059;-90
2022/10/13 00:31:56;;;;;;;8.15;1.58;;;;;;;7.76;100.00;100927.81;4992743;28;20046;-91
2022/10/13 00:34:23;;;;;;;5.72;1.42;;;;;;;7.86;100.00;100941.50;4984496;28;20046;-91
2022/10/13 00:36:49;;;;;;;5.30;1.98;;;;;;;7.72;100.00;100931.41;4980815;28;20587;-90
2022/10/13 00:39:16;;;;;;;4.32;1.55;;;;;;;7.74;100.00;100932.22;4977228;28;20046;-90
2022/10/13 00:41:43;;;;;;;6.15;1.77;;;;;;;7.66;100.00;100925.44;4977118;28;20051;-91
2022/10/13 00:44:58;;;;;;;4.68;1.50;;;;;;;8.01;100.00;100962.91;4974832;28;20053;-91
2022/10/13 00:47:33;;;;;;;6.68;1.63;;;;;;;7.64;100.00;100928.09;4988090;28;20054;-90
2022/10/13 00:50:01;;;;;;;8.82;1.77;;;;;;;7.64;100.00;100933.31;4977683;28;20389;-90
2022/10/13 00:52:31;;;;;;;6.10;1.77;;;;;;;7.76;100.00;100940.00;4977242;28;20374;-90
2022/10/13 00:55:01;;;;;;;6.85;1.60;;;;;;;7.68;100.00;100934.94;4990766;28;20050;-91
2022/10/13 00:57:28;;;;;;;8.73;2.85;;;;;;;7.61;100.00;100938.56;4992777;28;20050;-90
2022/10/13 00:59:56;;;;;;;11.27;1.90;;;;;;;7.68;100.00;100941.91;4990298;28;20051;-90
2022/10/13 01:02:31;;;;;;;6.90;2.00;;;;;;;7.64;100.00;100938.50;4988733;28;20398;-90
2022/10/13 01:04:59;;;;;;;3.55;1.45;;;;;;;7.66;100.00;100930.66;4975320;28;20602;-90
2022/10/13 01:07:26;;;;;;;5.72;1.63;;;;;;;7.45;100.00;100919.81;4977095;28;20125;-90
2022/10/13 01:09:52;;;;;;;5.43;1.70;;;;;;;7.40;100.00;100912.13;4974265;28;20050;-90
2022/10/13 01:12:51;;;;;;;5.53;1.80;;;;;;;7.63;100.00;100948.97;4976419;28;20093;-90
2022/10/13 01:15:17;;;;;;;9.48;2.15;;;;;;;7.51;100.00;100953.56;4988857;28;20046;-90
2022/10/13 01:18:15;;;;;;;5.95;1.52;;;;;;;7.57;100.00;100955.19;4987034;28;20137;-90
2022/10/13 01:21:10;;;;;;;10.05;2.25;;;;;;;7.48;100.00;100937.16;4976311;28;20481;-90
2022/10/13 01:23:46;;;;;;;7.95;2.05;;;;;;;7.55;100.00;100959.56;4992425;28;20050;-90
2022/10/13 01:26:21;;;;;;;10.52;2.13;;;;;;;7.54;100.00;100955.22;4989389;28;20455;-91
2022/10/13 01:29:08;;;;;;;29.90;3.65;;;;;;;7.39;100.00;100946.84;4988348;28;20058;-90
2022/10/13 01:31:51;;;;;;;6.60;1.70;;;;;;;7.64;100.00;100950.69;4985143;28;20046;-90
2022/10/13 01:34:33;;;;;;;9.07;2.00;;;;;;;7.59;100.00;100946.41;4974622;28;20046;-91
2022/10/13 01:37:09;;;;;;;8.20;1.80;;;;;;;7.62;100.00;100939.44;4976163;28;20058;-91
2022/10/13 01:39:50;;;;;;;10.27;1.85;;;;;;;7.44;100.00;100932.88;4973530;28;20477;-90
2022/10/13 01:42:21;;;;;;;9.90;2.30;;;;;;;7.51;100.00;100940.53;4976236;28;20046;-90
2022/10/13 01:44:52;;;;;;;10.60;1.90;;;;;;;7.46;100.00;100942.38;4975032;28;20382;-90
2022/10/13 01:47:20;;;;;;;8.07;1.90;;;;;;;7.62;100.00;100949.88;4984704;28;20058;-90
2022/10/13 01:49:50;;;;;;;8.93;1.70;;;;;;;7.76;100.00;100953.03;4969087;28;20097;-90
2022/10/13 01:52:21;;;;;;;7.05;2.10;;;;;;;7.58;100.00;100923.88;4975330;28;20112;-90
2022/10/13 01:54:50;;;;;;;13.73;2.30;;;;;;;7.67;100.00;100940.22;4974789;28;20058;-90
2022/10/13 01:57:38;;;;;;;11.43;2.00;;;;;;;7.65;100.00;100949.78;4977634;28;20178;-90
2022/10/13 02:00:08;;;;;;;9.88;2.63;;;;;;;7.50;100.00;100937.97;4980532;28;20061;-91
2022/10/13 02:03:24;;;;;;;9.15;1.88;;;;;;;7.40;100.00;100906.03;4975421;28;20469;-90
2022/10/13 02:06:12;;;;;;;8.02;2.25;;;;;;;7.63;100.00;100939.38;4946205;28;20064;-91
2022/10/13 02:08:44;;;;;;;8.90;2.00;;;;;;;7.44;100.00;100918.13;4916955;29;20051;-90
2022/10/13 02:11:13;;;;;;;12.10;2.10;;;;;;;7.62;100.00;100940.31;4963822;28;20047;-90
2022/10/13 02:13:53;;;;;;;8.82;2.42;;;;;;;7.50;100.00;100924.94;4973702;28;20105;-90
2022/10/13 02:16:22;;;;;;;9.43;2.63;;;;;;;7.44;100.00;100910.31;4973104;28;20046;-90
2022/10/13 02:18:50;;;;;;;8.68;1.77;;;;;;;7.55;100.00;100918.72;4974032;28;20516;-90
2022/10/13 02:21:16;;;;;;;7.43;1.80;;;;;;;7.34;100.00;100880.13;4989548;28;20058;-90
2022/10/13 02:23:44;;;;;;;7.88;2.17;;;;;;;7.55;100.00;100902.25;4974532;28;20054;-90
2022/10/13 02:26:12;;;;;;;12.90;1.83;;;;;;;7.72;100.00;100927.91;4990063;28;20096;-90
2022/10/13 02:28:39;;;;;;;10.15;1.85;;;;;;;7.64;100.00;100902.03;4975053;28;20046;-90
2022/10/13 02:31:07;;;;;;;10.27;2.45;;;;;;;7.68;100.00;100924.50;4991910;28;20125;-90
2022/10/13 02:33:34;;;;;;;11.38;2.10;;;;;;;7.43;100.00;100903.38;4975034;28;20485;-90
2022/10/13 02:36:01;;;;;;;8.35;1.92;;;;;;;7.41;100.00;100902.53;4972075;28;20594;-89
2022/10/13 02:38:27;;;;;;;7.30;1.73;;;;;;;7.23;100.00;100864.72;4989336;28;20050;-90
2022/10/13 02:40:54;;;;;;;4.72;1.50;;;;;;;7.70;100.00;100938.41;4980078;28;20536;-90
2022/10/13 02:43:21;;;;;;;7.85;1.83;;;;;;;7.46;100.00;100903.31;4991816;28;20049;-89
2022/10/13 02:45:47;;;;;;;9.55;2.28;;;;;;;7.58;100.00;100917.81;4993788;28;20093;-90
2022/10/13 02:48:14;;;;;;;5.70;1.60;;;;;;;7.57;100.00;100926.50;4989289;28;20035;-91
2022/10/13 02:50:41;;;;;;;12.82;2.03;;;;;;;7.50;100.00;100941.41;4975039;28;20452;-91
2022/10/13 02:53:08;;;;;;;15.68;2.40;;;;;;;7.49;100.00;100931.03;4970051;28;20046;-90
2022/10/13 02:55:34;;;;;;;9.27;1.70;;;;;;;7.43;100.00;100910.31;4989482;28;20042;-90
2022/10/13 02:58:01;;;;;;;8.30;2.20;;;;;;;7.55;100.00;100950.00;4995455;28;20054;-90
2022/10/13 03:00:27;;;;;;;9.90;2.15;;;;;;;7.26;100.00;100895.06;4989994;28;20046;-89
2022/10/13 03:02:55;;;;;;;10.25;1.88;;;;;;;7.46;100.00;100936.31;4975386;28;20053;-89
2022/10/13 03:05:21;;;;;;;10.88;1.90;;;;;;;7.26;100.00;100905.47;4980822;28;20219;-90
2022/10/13 03:07:48;;;;;;;9.07;2.00;;;;;;;7.39;100.00;100910.38;4973257;28;20058;-90
2022/10/13 03:10:15;;;;;;;8.57;2.50;;;;;;;7.30;100.00;100933.19;4978416;28;20142;-89
2022/10/13 03:12:42;;;;;;;4.78;1.50;;;;;;;7.27;100.00;100928.88;4995187;28;20047;-90
2022/10/13 03:15:09;;;;;;;12.50;1.73;;;;;;;7.04;100.00;100939.75;4994283;28;20050;-91
2022/10/13 03:17:35;;;;;;;7.28;1.52;;;;;;;6.76;100.00;100900.41;4977772;28;20729;-90
2022/10/13 03:20:03;;;;;;;5.88;1.50;;;;;;;6.72;100.00;100928.22;4994082;28;20062;-89
2022/10/13 03:22:33;;;;;;;7.65;1.60;;;;;;;6.45;100.00;100886.22;4986497;28;20089;-87
2022/10/13 03:25:00;;;;;;;6.75;1.95;;;;;;;6.55;100.00;100886.03;4975165;28;20058;-85
2022/10/13 03:27:26;;;;;;;5.57;1.60;;;;;;;6.68;100.00;100905.75;4994198;28;20050;-87
2022/10/13 03:29:53;;;;;;;8.30;1.92;;;;;;;6.77;100.00;100952.41;4994614;28;20412;-89
2022/10/13 03:32:20;;;;;;;20.42;2.97;;;;;;;6.50;100.00;100930.38;4994302;28;20097;-90
2022/10/13 03:34:48;;;;;;;7.13;1.88;;;;;;;6.24;100.00;100889.19;4993735;28;20046;-86
2022/10/13 03:37:15;;;;;;;7.18;2.05;;;;;;;6.33;100.00;100903.78;4979439;28;20062;-89
2022/10/13 03:39:42;;;;;;;7.95;1.95;;;;;;;6.39;100.00;100917.56;4977809;28;20104;-89
2022/10/13 03:42:09;;;;;;;6.30;1.73;;;;;;;6.34;100.00;100921.09;4977803;28;20117;-88
2022/10/13 03:44:35;;;;;;;6.60;1.58;;;;;;;6.20;100.00;100914.41;4969514;28;20623;-89
2022/10/13 03:47:02;;;;;;;9.27;1.75;;;;;;;6.17;100.00;100901.44;4993861;28;20112;-89
2022/10/13 03:49:28;;;;;;;6.28;1.60;;;;;;;6.18;100.00;100889.28;4974980;28;20050;-88
2022/10/13 03:51:55;;;;;;;5.55;2.03;;;;;;;6.51;100.00;100937.28;4986815;28;20050;-89
2022/10/13 03:54:23;;;;;;;10.13;1.90;;;;;;;6.29;100.00;100907.34;4988306;28;20054;-87
2022/10/13 03:56:49;;;;;;;4.75;1.30;;;;;;;6.47;100.00;100909.59;4994266;28;20114;-88
2022/10/13 03:59:17;;;;;;;11.10;1.60;;;;;;;6.55;100.00;100923.34;4976810;28;20054;-89
2022/10/13 04:01:44;;;;;;;5.88;1.38;;;;;;;6.54;100.00;100916.41;4992702;28;20098;-89
2022/10/13 04:04:11;;;;;;;5.60;1.83;;;;;;;6.48;100.00;100895.72;4990584;28;20047;-90
2022/10/13 04:06:38;;;;;;;10.13;1.90;;;;;;;6.42;100.00;100895.81;4993493;28;20098;-90
2022/10/13 04:09:05;;;;;;;7.60;1.90;;;;;;;6.44;100.00;100915.69;4993487;28;20057;-89
2022/10/13 04:11:32;;;;;;;6.07;1.77;;;;;;;6.18;100.00;100878.88;4995222;28;20112;-89
2022/10/13 04:13:59;;;;;;;7.13;1.70;;;;;;;6.54;100.00;100931.16;4977842;28;20054;-89
2022/10/13 04:16:28;;;;;;;6.03;1.63;;;;;;;6.57;100.00;100933.69;4993682;28;20087;-89
2022/10/13 04:18:58;;;;;;;6.25;1.70;;;;;;;6.51;100.00;100928.63;4977125;28;20051;-89
2022/10/13 04:21:26;;;;;;;3.75;1.40;;;;;;;6.59;100.00;100934.56;4976855;28;20050;-88
2022/10/13 04:23:57;;;;;;;6.63;1.70;;;;;;;6.57;100.00;100923.28;4993224;28;20050;-89
2022/10/13 04:26:26;;;;;;;7.18;1.52;;;;;;;6.81;100.00;100925.44;4994582;28;20050;-88
2022/10/13 04:28:54;;;;;;;6.20;1.60;;;;;;;6.84;100.00;100924.53;4989296;28;20134;-88
2022/10/13 04:31:22;;;;;;;6.88;1.75;;;;;;;6.84;100.00;100933.19;4985137;28;20409;-89
2022/10/13 04:33:53;;;;;;;3.85;1.30;;;;;;;6.85;100.00;100923.63;4976167;28;20535;-89
2022/10/13 04:36:20;;;;;;;13.10;2.40;;;;;;;6.66;100.00;100923.16;4965506;28;20086;-89
2022/10/13 04:38:47;;;;;;;8.32;1.75;;;;;;;6.65;100.00;100932.66;4973922;28;20436;-88
2022/10/13 04:41:16;;;;;;;6.63;1.77;;;;;;;6.65;100.00;100927.47;4968092;28;20051;-89
2022/10/13 04:43:43;;;;;;;7.57;1.80;;;;;;;6.45;100.00;100913.97;4976386;28;20055;-89
2022/10/13 04:46:14;;;;;;;7.65;1.80;;;;;;;6.59;100.00;100931.94;4973880;28;20535;-89
2022/10/13 04:48:41;;;;;;;8.70;1.60;;;;;;;6.22;100.00;100910.03;4992363;28;20055;-88
2022/10/13 04:51:11;;;;;;;8.18;1.95;;;;;;;6.08;100.00;100917.19;4977065;28;20054;-89
2022/10/13 04:53:38;;;;;;;7.68;1.88;;;;;;;6.12;100.00;100910.19;4977129;28;20057;-88
2022/10/13 04:56:10;;;;;;;9.80;2.10;;;;;;;6.06;100.00;100904.22;4992943;28;20050;-89
2022/10/13 04:58:38;;;;;;;8.77;2.00;;;;;;;6.31;100.00;100909.00;4992946;28;20093;-89
2022/10/13 05:01:07;;;;;;;7.93;1.90;;;;;;;6.16;100.00;100917.06;4993176;28;20046;-89
2022/10/13 05:03:34;;;;;;;7.45;1.80;;;;;;;5.90;100.00;100898.38;4984040;28;20126;-90
2022/10/13 05:06:01;;;;;;;5.60;1.60;;;;;;;5.94;100.00;100896.59;4985349;28;20049;-90
2022/10/13 05:08:28;;;;;;;4.05;1.50;;;;;;;6.06;100.00;100921.56;4973342;28;20049;-89
2022/10/13 05:10:56;;;;;;;7.80;1.98;;;;;;;5.82;100.00;100894.19;4973421;28;20101;-90
2022/10/13 05:13:24;;;;;;;7.50;1.70;;;;;;;5.79;100.00;100904.59;4991146;28;20058;-90
2022/10/13 05:15:51;;;;;;;5.53;1.60;;;;;;;5.90;100.00;100881.94;4976636;28;20050;-90
2022/10/13 05:18:17;;;;;;;7.47;2.58;;;;;;;5.77;100.00;100899.47;4963227;28;20222;-90
2022/10/13 05:20:45;;;;;;;6.57;1.65;;;;;;;5.82;100.00;100869.03;4980440;28;20050;-86
2022/10/13 05:23:13;;;;;;;5.68;1.70;;;;;;;6.06;100.00;100904.22;4992738;28;20504;-88
2022/10/13 05:25:40;;;;;;;5.35;1.60;;;;;;;5.97;100.00;100893.97;4987266;28;20408;-88
2022/10/13 05:28:07;;;;;;;5.82;1.50;;;;;;;5.79;100.00;100858.72;4975720;28;20058;-87
2022/10/13 05:30:34;;;;;;;9.68;2.08;;;;;;;5.85;100.00;100889.78;4985771;28;20050;-88
2022/10/13 05:33:01;;;;;;;12.50;1.60;;;;;;;6.03;100.00;100899.06;4981779;28;20117;-89
2022/10/13 05:35:27;;;;;;;10.40;2.10;;;;;;;5.97;100.00;100880.13;4977199;28;20047;-88
2022/10/13 05:37:54;;;;;;;7.10;1.70;;;;;;;6.10;100.00;100876.44;4959262;28;20113;-88
2022/10/13 05:40:21;;;;;;;5.63;1.67;;;;;;;6.00;100.00;100883.53;4988118;28;20058;-89
2022/10/13 05:42:49;;;;;;;6.03;1.80;;;;;;;5.92;100.00;100848.13;4973342;28;20051;-89
2022/10/13 05:45:18;;;;;;;8.27;1.73;;;;;;;6.00;100.00;100862.75;4985135;28;20058;-86
2022/10/13 05:47:45;;;;;;;6.32;1.70;;;;;;;5.98;100.00;100850.63;4992038;28;20050;-87
2022/10/13 05:50:11;;;;;;;4.95;1.48;;;;;;;5.83;100.00;100813.59;4975062;28;20043;-86
2022/10/13 05:52:39;;;;;;;4.20;1.48;;;;;;;6.22;100.00;100868.41;4989289;28;20050;-88
2022/10/13 05:55:09;;;;;;;5.57;1.48;;;;;;;6.31;100.00;100856.16;4982183;28;20050;-88
2022/10/13 05:57:49;;;;;;;7.50;1.90;;;;;;;6.30;100.00;100841.41;4991420;28;20196;-87
2022/10/13 06:00:18;;;;;;;7.72;1.95;;;;;;;6.46;100.00;100863.66;4992092;28;20049;-88
2022/10/13 06:02:57;;;;;;;8.18;1.60;;;;;;;6.54;100.00;100880.00;4989986;28;20078;-88
2022/10/13 06:05:26;;;;;;;6.82;1.50;;;;;;;6.18;100.00;100832.09;4982908;28;20607;-87
2022/10/13 06:07:54;;;;;;;6.88;1.70;;;;;;;6.27;100.00;100848.41;4973009;28;20050;-88
2022/10/13 06:10:22;;;;;;;7.53;1.52;;;;;;;6.29;100.00;100826.72;4974010;28;20058;-87
2022/10/13 06:12:49;;;;;;;6.05;1.52;;;;;;;6.48;100.00;100854.09;4991115;28;20057;-87
2022/10/13 06:15:16;;;;;;;7.93;2.30;;;;;;;6.18;100.00;100819.97;4976445;28;20054;-88
2022/10/13 06:17:42;;;;;;;7.30;1.75;;;;;;;6.17;100.00;100833.84;4974979;28;20057;-87
2022/10/13 06:20:09;;;;;;;7.38;1.80;;;;;;;6.18;100.00;100837.28;4991824;28;20057;-86
2022/10/13 06:22:37;;;;;;;5.65;1.88;;;;;;;6.21;100.00;100878.84;4973239;28;20393;-88
2022/10/13 06:25:05;;;;;;;6.32;1.90;;;;;;;6.24;100.00;100878.81;4974736;28;20713;-88
2022/10/13 06:27:32;;;;;;;5.50;1.50;;;;;;;6.05;100.00;100853.09;4969905;28;20067;-89
2022/10/13 06:29:59;;;;;;;12.25;1.92;;;;;;;5.94;100.00;100856.75;4976040;28;20109;-88
2022/10/13 06:32:26;;;;;;;8.30;2.03;;;;;;;5.98;100.00;100881.84;4978068;28;20100;-90
2022/10/13 06:34:52;;;;;;;7.00;2.10;;;;;;;5.85;100.00;100870.75;4969235;28;20097;-88
2022/10/13 06:37:19;;;;;;;5.38;1.77;;;;;;;5.76;100.00;100860.50;4990997;28;20058;-88
2022/10/13 06:39:52;;;;;;;6.85;1.98;;;;;;;5.68;100.00;100881.38;4972949;28;20399;-88
2022/10/13 06:42:19;;;;;;;5.97;1.77;;;;;;;5.31;100.00;100827.38;4973704;28;20508;-88
2022/10/13 06:44:47;;;;;;;7.38;2.03;;;;;;;5.47;100.00;100861.78;4982754;28;20122;-89
2022/10/13 06:47:13;;;;;;;8.70;2.40;;;;;;;5.16;100.00;100825.88;4975417;28;21547;-90
2022/10/13 06:49:40;;;;;;;7.45;2.20;;;;;;;5.61;100.00;100888.44;4967098;28;20054;-89
2022/10/13 06:52:08;;;;;;;6.47;1.63;;;;;;;5.71;100.00;100883.94;4990197;28;20050;-90
2022/10/13 06:54:34;;;;;;;7.97;2.17;;;;;;;5.91;100.00;100883.63;4987563;28;20109;-89
2022/10/13 06:57:04;;;;;;;11.73;2.70;;;;;;;5.69;100.00;100811.22;4976797;28;20113;-89
2022/10/13 06:59:31;;;;;;;8.13;1.90;;;;;;;5.90;100.00;100833.41;4991868;28;20544;-89
2022/10/13 07:01:58;;;;;;;6.85;2.08;;;;;;;6.03;100.00;100834.06;4979412;28;20082;-89
2022/10/13 07:04:26;;;;;;;5.30;1.83;;;;;;;6.14;100.00;100833.88;4967238;28;20061;-89
2022/10/13 07:06:53;;;;;;;9.75;2.33;;;;;;;6.45;100.00;100846.34;4995394;28;20499;-89
2022/10/13 07:09:20;;;;;;;7.05;1.98;;;;;;;6.51;100.00;100816.75;4974279;28;20058;-89
2022/10/13 07:11:48;;;;;;;6.70;1.67;;;;;;;6.55;100.00;100808.00;4996613;28;20105;-89
2022/10/13 07:14:14;;;;;;;7.50;1.98;;;;;;;6.81;100.00;100810.06;4995724;28;20054;-88
2022/10/13 07:16:41;;;;;;;5.53;1.55;;;;;;;6.92;100.00;100799.44;4978450;28;20050;-89
2022/10/13 07:19:08;;;;;;;7.78;1.52;;;;;;;7.02;100.00;100816.56;4992128;28;20473;-89
2022/10/13 07:21:35;;;;;;;6.10;1.98;;;;;;;7.10;100.00;100808.59;4978870;28;20054;-89
2022/10/13 07:24:02;;;;;;;8.60;1.70;;;;;;;7.27;100.00;100834.28;4968581;28;20481;-88
2022/10/13 07:26:32;;;;;;;6.03;1.52;;;;;;;7.50;100.00;100846.78;4982572;28;20133;-89
2022/10/13 07:28:59;;;;;;;4.32;1.30;;;;;;;8.09;100.00;100861.84;4984600;28;20054;-89
2022/10/13 07:31:27;;;;;;;8.00;1.75;;;;;;;8.78;100.00;100826.09;4991863;28;20508;-89
2022/10/13 07:33:53;;;;;;;11.65;2.13;;;;;;;9.09;100.00;100836.50;4973956;28;20079;-90
2022/10/13 07:36:20;;;;;;;12.52;2.08;;;;;;;9.50;100.00;100823.94;4973840;28;20055;-89
2022/10/13 07:38:47;;;;;;;5.55;1.70;;;;;;;9.70;100.00;100798.91;4988847;28;20405;-89
2022/10/13 07:41:14;;;;;;;9.88;1.65;;;;;;;10.21;100.00;100839.91;4985731;28;20053;-89
2022/10/13 07:43:41;;;;;;;9.25;1.90;;;;;;;10.46;100.00;100839.06;4987503;28;20101;-89
2022/10/13 07:46:11;;;;;;;8.73;2.03;;;;;;;10.59;100.00;100798.47;4991571;28;20054;-93
2022/10/13 07:48:38;;;;;;;8.18;1.60;;;;;;;11.17;100.00;100818.13;4980338;28;20054;-90
2022/10/13 07:51:08;;;;;;;11.63;2.35;;;;;;;11.26;100.00;100841.38;4984869;28;20050;-95
2022/10/13 07:53:50;;;;;;;16.67;2.28;;;;;;;10.31;100.00;100842.22;4984424;28;20133;-89
2022/10/13 07:56:17;;;;;;;6.07;1.63;;;;;;;9.03;100.00;100841.06;4994937;28;20058;-89
2022/10/13 07:58:46;;;;;;;6.38;1.75;;;;;;;8.61;100.00;100859.69;4992611;28;20055;-90
2022/10/13 08:01:16;;;;;;;8.10;2.13;;;;;;;8.68;100.00;100846.41;4978989;28;20085;-89
2022/10/13 08:03:44;;;;;;;4.88;1.63;;;;;;;9.09;100.00;100792.09;4994913;28;20124;-89
2022/10/13 08:06:16;;;;;;;10.35;2.38;;;;;;;10.06;100.00;100806.44;4979805;28;20053;-90
2022/10/13 08:08:43;;;;;;;5.55;1.85;;;;;;;9.96;100.00;100782.34;4978346;28;20050;-89
2022/10/13 08:11:14;;;;;;;7.15;1.58;;;;;;;10.75;100.00;100838.03;4973380;28;20638;-89
2022/10/13 08:13:52;;;;;;;8.82;2.40;;;;;;;10.72;100.00;100853.00;4977518;28;20051;-90
2022/10/13 08:16:19;;;;;;;9.60;1.70;;;;;;;9.88;100.00;100819.22;4993646;28;20054;-89
2022/10/13 08:18:47;;;;;;;6.03;1.90;;;;;;;9.80;100.00;100816.00;4986517;28;20069;-90
2022/10/13 08:21:16;;;;;;;11.10;2.40;;;;;;;10.17;100.00;100840.91;4988876;28;20050;-89
2022/10/13 08:24:09;;;;;;;4.65;1.20;;;;;;;10.60;100.00;100849.91;4973668;28;20094;-90
2022/10/13 08:26:35;;;;;;;6.65;1.52;;;;;;;10.13;100.00;100839.31;4977533;28;20054;-89
2022/10/13 08:29:02;;;;;;;5.57;1.42;;;;;;;10.10;100.00;100843.81;4994368;28;20054;-89
2022/10/13 08:31:53;;;;;;;7.03;1.85;;;;;;;10.04;100.00;100830.03;4985657;28;20078;-89
2022/10/13 08:34:21;;;;;;;6.47;1.77;;;;;;;10.78;100.00;100842.31;4973520;28;20057;-87
2022/10/13 08:36:51;;;;;;;3.38;1.33;;;;;;;10.90;100.00;100813.03;4964751;28;20065;-87
2022/10/13 08:39:19;;;;;;;9.45;2.75;;;;;;;11.16;100.00;100822.53;4976445;28;20053;-87
2022/10/13 08:41:47;;;;;;;8.02;1.38;;;;;;;11.08;100.00;100787.03;4979912;28;20054;-86
2022/10/13 08:44:33;;;;;;;8.27;1.60;;;;;;;11.35;100.00;100809.56;4979901;28;20051;-86
2022/10/13 08:47:29;;;;;;;9.02;1.73;;;;;;;11.12;100.00;100828.81;4977024;28;20098;-86
2022/10/13 08:49:59;;;;;;;7.45;1.65;;;;;;;11.11;100.00;100832.31;4992898;28;20097;-87
2022/10/13 08:52:41;;;;;;;5.43;1.30;;;;;;;11.15;100.00;100822.56;4973099;28;20077;-86
2022/10/13 08:55:19;;;;;;;5.00;1.40;;;;;;;11.06;100.00;100807.22;4992932;28;20101;-86
2022/10/13 08:57:46;;;;;;;10.32;1.95;;;;;;;11.00;100.00;100806.53;4993638;28;20117;-86
2022/10/13 09:00:13;;;;;;;8.55;2.10;;;;;;;10.74;100.00;100788.34;4977071;28;20054;-86
2022/10/13 09:02:42;;;;;;;4.78;1.65;;;;;;;10.89;100.00;100813.09;4984714;28;20050;-87
2022/10/13 09:05:18;;;;;;;7.35;1.70;;;;;;;10.67;100.00;100798.19;4980021;28;20042;-86
2022/10/13 09:07:45;;;;;;;4.65;1.35;;;;;;;10.75;100.00;100811.00;4973018;28;20062;-86
2022/10/13 09:10:14;;;;;;;7.18;1.92;;;;;;;10.69;100.00;100813.84;4989664;28;20125;-87
2022/10/13 09:12:41;;;;;;;5.78;1.60;;;;;;;10.58;100.00;100783.66;4993463;28;20046;-87
2022/10/13 09:15:10;;;;;;;7.75;2.15;;;;;;;10.74;100.00;100828.47;4974225;28;20046;-86
2022/10/13 09:17:40;;;;;;;7.45;2.00;;;;;;;10.62;100.00;100800.09;4992966;28;20100;-87
2022/10/13 09:20:26;;;;;;;9.00;1.63;;;;;;;10.41;100.00;100760.72;4972814;28;20054;-87
2022/10/13 09:23:21;;;;;;;8.40;1.45;;;;;;;10.75;100.00;100814.47;4983967;28;20050;-86
2022/10/13 09:25:50;;;;;;;11.07;1.42;;;;;;;10.83;100.00;100822.03;4982380;28;20610;-87
2022/10/13 09:28:19;;;;;;;5.22;1.58;;;;;;;10.95;100.00;100816.34;4974195;28;20050;-87
2022/10/13 09:30:46;;;;;;;5.72;1.40;;;;;;;11.02;100.00;100775.88;4975709;28;20137;-87
2022/10/13 09:33:19;;;;;;;7.55;1.85;;;;;;;11.45;100.00;100811.81;4981002;28;20043;-87
2022/10/13 09:35:47;;;;;;;3.15;1.33;;;;;;;11.31;100.00;100786.13;4975159;28;20108;-90
2022/10/13 09:38:24;;;;;;;6.65;1.63;;;;;;;11.29;100.00;100756.53;4985717;28;20055;-91
2022/10/13 09:41:03;;;;;;;4.15;1.30;;;;;;;11.74;100.00;100781.78;4990065;28;20477;-86
2022/10/13 09:43:31;;;;;;;4.28;1.52;;;;;;;11.61;100.00;100777.94;4978395;28;20047;-87
2022/10/13 09:45:59;;;;;;;4.47;1.30;;;;;;;11.45;100.00;100754.13;4971290;28;20109;-86
2022/10/13 09:48:30;;;;;;;5.45;1.38;;;;;;;11.75;100.00;100807.94;5002164;28;20115;-87
2022/10/13 09:50:58;;;;;;;19.15;2.67;;;;;;;11.34;100.00;100768.53;4990882;28;20108;-87
2022/10/13 09:53:31;;;;;;;33.00;4.00;;;;;;;11.62;100.00;100816.38;4974911;28;20038;-87
2022/10/13 09:56:06;;;;;;;13.73;2.70;;;;;;;11.67;100.00;100822.28;4986773;28;20107;-87
2022/10/13 09:58:40;;;;;;;8.43;2.05;;;;;;;11.24;100.00;100767.19;4990583;28;20104;-87
2022/10/13 10:01:18;;;;;;;32.67;6.35;;;;;;;11.45;100.00;100777.72;4979921;28;20082;-87
2022/10/13 10:03:48;;;;;;;29.95;4.55;;;;;;;11.48;100.00;100754.00;4975166;28;20429;-87
2022/10/13 10:06:15;;;;;;;10.02;2.63;;;;;;;11.33;100.00;100771.19;4990392;28;20540;-87
2022/10/13 10:08:59;;;;;;;7.18;2.05;;;;;;;11.56;100.00;100797.38;4991799;28;20097;-87
2022/10/13 10:11:40;;;;;;;13.55;3.90;;;;;;;11.25;100.00;100797.72;4992388;28;20390;-87
2022/10/13 10:14:27;;;;;;;11.77;4.07;;;;;;;11.43;100.00;100798.75;4970739;28;20130;-87
2022/10/13 10:17:24;;;;;;;16.42;4.70;;;;;;;11.27;100.00;100801.13;4990931;28;20631;-87
2022/10/13 10:20:02;;;;;;;13.07;3.85;;;;;;;11.04;100.00;100778.44;4986323;28;20050;-87
2022/10/13 10:22:48;;;;;;;13.27;4.25;;;;;;;11.29;100.00;100806.31;4976108;28;20094;-87
2022/10/13 10:25:41;;;;;;;15.50;4.90;;;;;;;11.52;100.00;100789.66;4972120;28;20046;-87
2022/10/13 10:28:14;;;;;;;;;;;;;;;11.66;100.00;100791.72;4981938;28;20051;-87
2022/10/13 10:30:56;;;;;;;17.17;5.20;;;;;;;11.66;100.00;100786.50;4971684;28;19922;-87
2022/10/13 10:33:55;;;;;;;13.80;4.47;;;;;;;11.67;100.00;100796.91;4986477;28;20051;-87
2022/10/13 10:36:52;;;;;;;16.88;5.68;;;;;;;11.81;100.00;100801.59;4974104;28;20046;-87
2022/10/13 10:39:35;;;;;;;12.77;4.50;;;;;;;11.71;100.00;100768.78;4992354;28;20046;-87
2022/10/13 10:42:08;;;;;;;15.65;4.35;;;;;;;11.69;100.00;100749.66;4992040;28;20054;-87
2022/10/13 10:44:41;;;;;;;18.50;5.18;;;;;;;11.70;100.00;100728.56;4977326;28;20413;-87
2022/10/13 10:47:23;;;;;;;10.43;3.72;;;;;;;12.20;100.00;100766.72;4973051;28;20110;-87
2022/10/13 10:49:55;;;;;;;11.00;3.00;;;;;;;12.34;100.00;100766.97;4965190;28;20062;-87
2022/10/13 10:52:28;;;;;;;9.80;2.85;;;;;;;12.48;100.00;100754.97;4972031;28;20054;-87
2022/10/13 10:54:59;;;;;;;;;;;;;;;12.88;100.00;100761.88;4975677;28;20413;-88
2022/10/13 10:57:55;;;;;;;11.77;2.72;;;;;;;12.71;100.00;100757.44;4987877;28;19934;-88
2022/10/13 11:00:22;;;;;;;8.20;1.95;;;;;;;12.91;100.00;100743.34;4969093;28;20061;-88
2022/10/13 11:03:07;;;;;;;8.95;2.28;;;;;;;12.91;100.00;100753.88;4987683;28;20086;-88
2022/10/13 11:06:12;;;;;;;7.15;1.73;;;;;;;12.94;100.00;100760.72;4987107;28;20053;-87
2022/10/13 11:08:42;;;;;;;10.88;2.22;;;;;;;12.51;100.00;100687.41;4963217;28;20038;-88
2022/10/13 11:11:30;;;;;;;6.18;1.63;;;;;;;13.36;100.00;100748.28;4974909;28;20061;-88
2022/10/13 11:14:05;;;;;;;7.97;1.80;;;;;;;13.42;100.00;100738.31;4984000;28;20474;-87
2022/10/13 11:16:33;;;;;;;7.57;1.80;;;;;;;13.08;100.00;100691.75;4988253;28;20058;-87
2022/10/13 11:19:21;;;;;;;8.25;1.98;;;;;;;13.44;100.00;100710.16;4994355;28;20076;-87
2022/10/13 11:21:54;;;;;;;7.45;1.73;;;;;;;13.74;100.00;100740.25;4979552;28;20061;-88
2022/10/13 11:24:37;;;;;;;6.38;2.10;;;;;;;13.72;100.00;100731.59;4975263;28;20386;-88
2022/10/13 11:27:10;;;;;;;6.97;1.77;;;;;;;13.90;100.00;100720.13;4994478;28;20104;-88
2022/10/13 11:29:43;;;;;;;4.65;1.67;;;;;;;14.03;100.00;100715.06;4995874;28;20058;-87
2022/10/13 11:32:53;;;;;;;7.93;1.85;;;;;;;13.89;100.00;100707.88;4978673;28;20485;-88
2022/10/13 11:35:26;;;;;;;6.63;1.85;;;;;;;13.84;100.00;100697.59;4992858;28;20049;-88
2022/10/13 11:37:56;;;;;;;6.80;1.70;;;;;;;13.89;100.00;100705.25;4958931;28;20077;-88
2022/10/13 11:41:24;;;;;;;10.07;2.20;;;;;;;13.47;100.00;100688.09;4990374;28;20049;-88